Aeroporto :
LOGIN :

Iscrizione | Disclaimer

   EN    FR    IT 

 










Sommario :    VFR   VFR Marginale   IFR   IFR Intensivo   IFR Molto Intensivo
Visibilità : 
Base nubi : 
>= 8 km
>= 3000ft
5 / 8 km
1000 / 3000 ft
1500m / 5 km
500 / 1000 ft
800 / 1500m
200 / 500 ft
< 800m
< 200 ft
Simboli :   Temporali  Nebbia  Neve Forte  Precipitazioni Forti  Vento > 20 kt
SIGMETs :   Varie  Temporali  Ghiacco  Turbolenza  Onda orograficha  Ceneri Vulcaniche






- Altitudine del aeroporto : 1465 ft


LSMP - Payerne

ULTIMO METAR :
  • 172150Z AUTO 20007KT 9999NDV SCT033 OVC057 05/03 Q1025 RMK

METARs OBSOLETI :
  • 172120Z AUTO 20006KT 170V230 9000NDV -RA FEW033 SCT043 05/04 Q1025 RMK
  • 172050Z AUTO 22004KT 9999NDV -RA SCT033 SCT076 04/03 Q1024 RMK
  • 172020Z AUTO 22004KT 9999NDV -RA FEW033 SCT050 05/04 Q1024 RMK
  • 171950Z AUTO 19004KT 5000NDV -SHRA BR SCT048 04/04 Q1023 RMK
  • 171920Z AUTO 25003KT 200V300 4800NDV -SHRA BR FEW016 SCT025 BKN039 05/04 Q1023 RMK

Previsioni scadute.



MetMap, La meteo Aeronautica in un colpo d'occhio ! - Copyright ORBIFLY Dicembre 2007 - Disclaimer

ORBIFLY MET'MAP TEAM :

Programmazione e sviluppo : Alexandra Zaïnal
Concezione : Baudouin d'Aumeries
Aiuto per la programmazione : Marc-Olivier Méhu
Supporto tecnico e logistico : Manuel Goepfert
Aiuto per la traduzione : Arnaldo La Scala

Contatto : metmap@orbifly.com




FONTI E CREDITI :

   NOAA